Time;durP1;ratioP1;P1;durP2;ratioP2;P2;SDS_P1;SDS_P2;PMS_P1;PMS_P2;Temp;Humidity;BMP_temperature;BMP_pressure;BME280_temperature;BME280_humidity;BME280_pressure;Samples;Min_cycle;Max_cycle;Signal;HPM_P1;HPM_P2
2022/04/24 00:02:27;;;;;;;;;;;;;;;3.43;65.50;97777.36;108573;1270;22551;-72
2022/04/24 00:04:54;;;;;;;;;;;;;;;3.43;66.18;97773.26;108572;1271;22822;-72
2022/04/24 00:07:21;;;;;;;;;;;;;;;3.39;66.64;97774.47;108599;1271;22703;-72
2022/04/24 00:09:48;;;;;;;;;;;;;;;3.34;66.38;97771.06;108604;1271;22613;-73
2022/04/24 00:12:18;;;;;;;;;;;;;;;3.32;66.23;97768.25;108566;1271;25287;-72
2022/04/24 00:14:45;;;;;;;;;;;;;;;3.29;65.97;97762.89;108563;1270;22687;-72
2022/04/24 00:17:15;;;;;;;;;;;;;;;3.26;65.68;97760.14;108548;1271;22549;-72
2022/04/24 00:19:43;;;;;;;;;;;;;;;3.24;65.71;97755.95;108605;1271;24048;-72
2022/04/24 00:22:10;;;;;;;;;;;;;;;3.20;65.49;97755.43;108574;1271;22545;-71
2022/04/24 00:24:37;;;;;;;;;;;;;;;3.18;65.61;97747.64;108512;1271;22635;-72
2022/04/24 00:27:03;;;;;;;;;;;;;;;3.14;65.56;97743.86;108574;1271;22525;-72
2022/04/24 00:29:30;;;;;;;;;;;;;;;3.11;65.26;97745.24;108577;1270;22690;-72
2022/04/24 00:31:57;;;;;;;;;;;;;;;3.11;65.22;97746.63;108594;1271;22532;-72
2022/04/24 00:34:24;;;;;;;;;;;;;;;3.12;65.39;97737.81;108573;1271;22515;-71
2022/04/24 00:36:51;;;;;;;;;;;;;;;3.12;66.20;97738.83;108591;1268;22610;-71
2022/04/24 00:39:17;;;;;;;;;;;;;;;3.11;66.93;97737.32;108572;1271;23209;-72
2022/04/24 00:41:48;;;;;;;;;;;;;;;3.09;67.28;97736.41;108536;1271;22650;-71
2022/04/24 00:44:17;;;;;;;;;;;;;;;3.06;67.11;97728.09;108560;1271;22528;-72
2022/04/24 00:46:49;;;;;;;;;;;;;;;3.04;66.90;97725.48;108567;1270;24220;-72
2022/04/24 00:49:16;;;;;;;;;;;;;;;3.01;66.73;97729.58;108595;1270;22525;-72
2022/04/24 00:51:43;;;;;;;;;;;;;;;2.97;66.60;97723.53;108561;1271;22629;-71
2022/04/24 00:54:11;;;;;;;;;;;;;;;2.95;66.69;97724.04;108571;1269;22517;-71
2022/04/24 00:56:39;;;;;;;;;;;;;;;2.92;66.68;97721.58;108573;1269;22590;-72
2022/04/24 00:59:07;;;;;;;;;;;;;;;2.89;66.59;97717.58;108580;1271;24209;-71
2022/04/24 01:01:35;;;;;;;;;;;;;;;2.85;66.33;97713.64;108546;1271;22578;-72
2022/04/24 01:04:04;;;;;;;;;;;;;;;2.83;66.40;97716.69;108536;1270;22563;-71
2022/04/24 01:06:32;;;;;;;;;;;;;;;2.81;66.40;97717.96;108583;1271;22529;-72
2022/04/24 01:09:18;;;;;;;;;;;;;;;2.79;66.00;97712.21;108576;1271;25309;-72
2022/04/24 01:11:47;;;;;;;;;;;;;;;2.81;65.96;97711.29;108580;1271;22545;-71
2022/04/24 01:14:16;;;;;;;;;;;;;;;2.83;66.17;97708.10;108599;1270;23170;-72
2022/04/24 01:16:44;;;;;;;;;;;;;;;2.85;66.82;97705.39;108535;1271;22545;-72
2022/04/24 01:19:12;;;;;;;;;;;;;;;2.87;67.56;97706.30;108611;1271;25390;-72
2022/04/24 01:21:41;;;;;;;;;;;;;;;2.91;68.09;97707.02;108651;1271;22569;-72
2022/04/24 01:24:08;;;;;;;;;;;;;;;2.94;68.38;97703.57;108614;1271;22519;-71
2022/04/24 01:26:35;;;;;;;;;;;;;;;2.98;68.25;97698.20;108588;1271;22495;-72
2022/04/24 01:29:04;;;;;;;;;;;;;;;3.04;68.18;97697.44;108577;1271;22769;-71
2022/04/24 01:31:31;;;;;;;;;;;;;;;3.08;67.56;97692.74;108590;1270;22707;-71
2022/04/24 01:33:59;;;;;;;;;;;;;;;3.12;67.73;97685.67;108578;1271;22513;-71
2022/04/24 01:36:26;;;;;;;;;;;;;;;3.14;67.74;97687.11;108592;1271;25362;-71
2022/04/24 01:38:53;;;;;;;;;;;;;;;3.17;67.70;97678.70;108566;1270;22680;-71
2022/04/24 01:41:20;;;;;;;;;;;;;;;3.23;67.61;97673.42;108590;1271;22582;-72
2022/04/24 01:43:47;;;;;;;;;;;;;;;3.30;67.78;97666.65;108551;1270;22525;-71
2022/04/24 01:46:14;;;;;;;;;;;;;;;3.36;68.75;97663.77;108561;1271;22518;-71
2022/04/24 01:48:41;;;;;;;;;;;;;;;3.43;69.52;97667.05;108584;1271;22528;-72
2022/04/24 01:51:09;;;;;;;;;;;;;;;3.48;69.61;97670.08;108573;1271;22703;-71
2022/04/24 01:53:37;;;;;;;;;;;;;;;3.54;69.46;97674.05;108554;1270;23368;-75
2022/04/24 01:56:05;;;;;;;;;;;;;;;3.60;69.91;97676.10;108556;1271;22510;-72
2022/04/24 01:58:32;;;;;;;;;;;;;;;3.67;69.40;97679.39;108135;1271;557262;-72
2022/04/24 02:01:00;;;;;;;;;;;;;;;3.72;69.54;97676.02;108481;1271;25231;-71
2022/04/24 02:03:29;;;;;;;;;;;;;;;3.77;69.55;97673.66;108632;1271;22526;-72
2022/04/24 02:05:56;;;;;;;;;;;;;;;3.83;68.75;97671.49;108813;1271;22617;-74
2022/04/24 02:08:23;;;;;;;;;;;;;;;3.87;68.83;97669.02;108818;1271;22502;-74
2022/04/24 02:10:51;;;;;;;;;;;;;;;3.95;68.15;97667.39;108811;1271;22694;-73
2022/04/24 02:13:17;;;;;;;;;;;;;;;4.05;68.43;97667.16;108632;1271;22520;-73
2022/04/24 02:15:46;;;;;;;;;;;;;;;4.14;68.77;97666.00;108581;1269;22528;-74
2022/04/24 02:18:12;;;;;;;;;;;;;;;4.24;69.24;97663.74;108566;1271;22776;-73
2022/04/24 02:20:39;;;;;;;;;;;;;;;4.31;69.55;97662.32;108578;1271;22536;-71
2022/04/24 02:23:06;;;;;;;;;;;;;;;4.36;69.59;97660.98;108599;1270;22822;-71
2022/04/24 02:25:33;;;;;;;;;;;;;;;4.41;69.55;97657.58;108596;1271;22982;-71
2022/04/24 02:28:00;;;;;;;;;;;;;;;4.46;69.20;97654.21;108544;1271;23462;-71
2022/04/24 02:30:28;;;;;;;;;;;;;;;4.51;69.15;97652.02;108562;1271;22539;-71
2022/04/24 02:32:57;;;;;;;;;;;;;;;4.57;69.83;97644.13;108580;1270;23231;-71
2022/04/24 02:35:24;;;;;;;;;;;;;;;4.63;69.98;97633.60;108540;1271;24086;-71
2022/04/24 02:37:51;;;;;;;;;;;;;;;4.68;68.68;97632.09;108544;1271;22519;-72
2022/04/24 02:40:24;;;;;;;;;;;;;;;4.72;69.01;97634.11;108579;1271;22496;-71
2022/04/24 02:42:51;;;;;;;;;;;;;;;4.75;69.07;97629.45;108558;1271;25305;-72
2022/04/24 02:45:19;;;;;;;;;;;;;;;4.78;69.29;97623.57;108552;1271;22600;-71
2022/04/24 02:47:46;;;;;;;;;;;;;;;4.81;69.44;97615.13;108563;1271;22463;-72
2022/04/24 02:50:14;;;;;;;;;;;;;;;4.86;69.63;97613.98;108600;1270;22528;-72
2022/04/24 02:52:48;;;;;;;;;;;;;;;4.91;69.70;97608.35;108576;1271;22523;-72
2022/04/24 02:55:16;;;;;;;;;;;;;;;4.97;70.06;97603.01;108567;1271;22735;-72
2022/04/24 02:57:43;;;;;;;;;;;;;;;5.03;70.08;97597.14;108541;1271;22599;-72
2022/04/24 03:00:12;;;;;;;;;;;;;;;5.13;69.82;97596.19;108552;1268;23387;-73
2022/04/24 03:02:41;;;;;;;;;;;;;;;5.23;70.22;97597.14;108632;1271;22521;-72
2022/04/24 03:05:09;;;;;;;;;;;;;;;5.32;70.72;97599.86;108588;1271;22553;-72
2022/04/24 03:07:35;;;;;;;;;;;;;;;5.39;70.99;97597.36;108577;1271;22652;-72
2022/04/24 03:10:02;;;;;;;;;;;;;;;5.44;70.88;97593.44;108557;1271;22701;-72
2022/04/24 03:12:29;;;;;;;;;;;;;;;5.49;70.45;97598.82;108550;1271;22656;-73
2022/04/24 03:14:56;;;;;;;;;;;;;;;5.53;70.04;97601.66;108542;1271;22651;-72
2022/04/24 03:17:23;;;;;;;;;;;;;;;5.59;69.76;97603.73;108567;1271;23280;-72
2022/04/24 03:19:50;;;;;;;;;;;;;;;5.63;69.34;97604.15;108585;1271;25656;-71
2022/04/24 03:22:17;;;;;;;;;;;;;;;5.68;68.88;97607.16;108612;1269;22523;-71
2022/04/24 03:24:45;;;;;;;;;;;;;;;5.72;69.16;97604.36;108546;1271;22658;-71
2022/04/24 03:27:13;;;;;;;;;;;;;;;5.74;68.84;97603.48;108537;1271;22515;-71
2022/04/24 03:29:39;;;;;;;;;;;;;;;5.78;69.21;97599.80;108561;1271;22512;-71
2022/04/24 03:32:07;;;;;;;;;;;;;;;5.81;68.54;97599.42;108583;1270;22556;-71
2022/04/24 03:34:35;;;;;;;;;;;;;;;5.84;68.48;97597.15;108643;1271;23451;-73
2022/04/24 03:37:03;;;;;;;;;;;;;;;5.87;68.05;97595.95;108548;1271;22982;-74
2022/04/24 03:39:30;;;;;;;;;;;;;;;5.90;67.95;97595.10;108578;1271;22756;-74
2022/04/24 03:41:58;;;;;;;;;;;;;;;5.93;68.26;97593.73;108580;1271;22582;-75
2022/04/24 03:44:25;;;;;;;;;;;;;;;5.96;67.99;97593.73;108615;1271;22496;-74
2022/04/24 03:46:52;;;;;;;;;;;;;;;5.98;67.95;97594.60;108584;1269;22627;-74
2022/04/24 03:49:18;;;;;;;;;;;;;;;6.00;67.89;97591.36;108556;1271;22508;-74
2022/04/24 03:51:45;;;;;;;;;;;;;;;6.02;67.91;97592.40;108535;1271;24294;-74
2022/04/24 03:54:12;;;;;;;;;;;;;;;6.04;67.92;97590.05;108596;1271;22525;-74
2022/04/24 03:56:39;;;;;;;;;;;;;;;6.06;68.01;97586.31;108551;1270;22680;-76
2022/04/24 03:59:06;;;;;;;;;;;;;;;6.08;67.69;97588.79;108587;1271;22659;-74
2022/04/24 04:01:33;;;;;;;;;;;;;;;6.10;67.85;97591.25;108530;1271;25444;-74
2022/04/24 04:04:00;;;;;;;;;;;;;;;6.11;67.91;97594.46;108586;1271;22543;-72
2022/04/24 04:06:26;;;;;;;;;;;;;;;6.13;67.85;97595.38;108583;1271;22645;-73
2022/04/24 04:08:53;;;;;;;;;;;;;;;6.15;67.68;97595.44;108569;1271;22563;-72
2022/04/24 04:11:20;;;;;;;;;;;;;;;6.16;67.95;97594.14;108586;1271;24421;-71
2022/04/24 04:13:47;;;;;;;;;;;;;;;6.22;67.97;97592.90;108547;1271;22541;-71
2022/04/24 04:16:14;;;;;;;;;;;;;;;6.27;68.04;97591.38;108577;1271;22526;-72
2022/04/24 04:18:41;;;;;;;;;;;;;;;6.31;68.52;97591.27;108587;1271;22795;-72
2022/04/24 04:21:07;;;;;;;;;;;;;;;6.35;69.19;97594.48;108536;1271;22985;-72
2022/04/24 04:23:34;;;;;;;;;;;;;;;6.37;69.17;97600.00;108712;1271;22572;-72
2022/04/24 04:26:01;;;;;;;;;;;;;;;6.39;68.88;97597.46;108540;1271;22760;-71
2022/04/24 04:28:28;;;;;;;;;;;;;;;6.42;68.47;97602.88;108535;1271;22522;-72
2022/04/24 04:30:55;;;;;;;;;;;;;;;6.42;68.27;97600.27;108545;1271;26332;-71
2022/04/24 04:33:22;;;;;;;;;;;;;;;6.44;68.08;97605.86;108603;1271;24368;-72
2022/04/24 04:35:48;;;;;;;;;;;;;;;6.45;67.93;97608.20;108564;1271;22525;-72
2022/04/24 04:38:15;;;;;;;;;;;;;;;6.46;67.60;97614.35;108557;1271;22622;-72
2022/04/24 04:40:42;;;;;;;;;;;;;;;6.48;67.61;97609.24;108527;1271;22528;-71
2022/04/24 04:43:09;;;;;;;;;;;;;;;6.49;67.83;97602.09;108564;1271;24428;-72
2022/04/24 04:45:36;;;;;;;;;;;;;;;6.50;67.67;97599.54;108555;1271;25365;-72
2022/04/24 04:48:03;;;;;;;;;;;;;;;6.52;67.67;97600.27;108572;1271;23200;-71
2022/04/24 04:50:30;;;;;;;;;;;;;;;6.54;67.29;97596.55;108561;1271;22556;-72
2022/04/24 04:52:57;;;;;;;;;;;;;;;6.54;67.44;97594.45;108564;1271;24286;-72
2022/04/24 04:55:24;;;;;;;;;;;;;;;6.55;67.13;97596.10;108561;1271;24413;-72
2022/04/24 04:57:51;;;;;;;;;;;;;;;6.57;66.98;97597.89;108542;1271;22693;-72
2022/04/24 05:00:18;;;;;;;;;;;;;;;6.60;67.16;97598.58;108574;1271;22671;-74
2022/04/24 05:02:45;;;;;;;;;;;;;;;6.63;67.02;97600.92;108580;1271;22564;-72
2022/04/24 05:05:12;;;;;;;;;;;;;;;6.68;66.94;97604.25;108548;1271;22688;-72
2022/04/24 05:07:39;;;;;;;;;;;;;;;6.72;66.84;97604.64;108573;1270;22780;-72
2022/04/24 05:10:06;;;;;;;;;;;;;;;6.78;66.70;97608.80;108582;1271;24371;-71
2022/04/24 05:12:33;;;;;;;;;;;;;;;6.84;66.81;97612.39;108569;1271;22675;-73
2022/04/24 05:15:04;;;;;;;;;;;;;;;6.89;66.43;97613.91;108571;1271;22626;-72
2022/04/24 05:17:30;;;;;;;;;;;;;;;6.94;66.58;97612.90;108553;1271;22595;-72
2022/04/24 05:19:57;;;;;;;;;;;;;;;6.99;66.61;97614.11;108534;1271;22555;-71
2022/04/24 05:22:24;;;;;;;;;;;;;;;7.06;66.72;97611.73;108551;1271;22542;-71
2022/04/24 05:24:51;;;;;;;;;;;;;;;7.19;66.52;97609.96;108545;1271;22598;-71
2022/04/24 05:27:19;;;;;;;;;;;;;;;7.39;66.35;97611.60;108585;1271;24570;-71
2022/04/24 05:29:46;;;;;;;;;;;;;;;7.59;66.37;97610.41;108585;1271;23457;-72
2022/04/24 05:32:13;;;;;;;;;;;;;;;7.76;66.35;97609.86;108580;1270;22616;-72
2022/04/24 05:34:40;;;;;;;;;;;;;;;7.94;66.58;97607.08;108572;1271;22554;-71
2022/04/24 05:37:07;;;;;;;;;;;;;;;8.08;66.33;97604.86;108555;1271;22576;-72
2022/04/24 05:39:34;;;;;;;;;;;;;;;8.20;65.93;97603.80;108569;1271;22527;-72
2022/04/24 05:42:01;;;;;;;;;;;;;;;8.30;65.61;97599.25;108559;1271;25333;-71
2022/04/24 05:44:28;;;;;;;;;;;;;;;8.41;65.25;97595.35;108552;1271;22585;-71
2022/04/24 05:46:55;;;;;;;;;;;;;;;8.50;65.16;97592.83;108571;1271;22512;-71
2022/04/24 05:49:22;;;;;;;;;;;;;;;8.59;64.83;97594.93;108562;1269;22690;-72
2022/04/24 05:51:48;;;;;;;;;;;;;;;8.64;64.85;97594.02;108584;1271;22534;-71
2022/04/24 05:54:15;;;;;;;;;;;;;;;8.71;64.55;97584.81;108597;1271;22521;-71
2022/04/24 05:56:42;;;;;;;;;;;;;;;8.75;64.67;97580.86;108555;1271;23119;-72
2022/04/24 05:59:09;;;;;;;;;;;;;;;8.78;65.13;97581.52;108588;1271;22514;-72
2022/04/24 06:01:36;;;;;;;;;;;;;;;8.79;65.24;97579.55;108576;1271;25384;-72
2022/04/24 06:04:03;;;;;;;;;;;;;;;8.79;65.06;97578.29;108622;1271;22655;-71
2022/04/24 06:06:32;;;;;;;;;;;;;;;8.79;65.30;97576.27;108562;1271;22661;-71
2022/04/24 06:08:59;;;;;;;;;;;;;;;8.79;65.76;97574.19;108530;1271;22527;-71
2022/04/24 06:11:25;;;;;;;;;;;;;;;8.84;65.90;97573.98;108589;1271;22505;-71
2022/04/24 06:13:53;;;;;;;;;;;;;;;8.84;66.11;97569.10;108754;1270;22514;-72
2022/04/24 06:16:20;;;;;;;;;;;;;;;8.88;66.12;97571.06;108796;1271;22523;-72
2022/04/24 06:18:46;;;;;;;;;;;;;;;8.85;66.28;97570.41;108764;1271;22659;-72
2022/04/24 06:21:13;;;;;;;;;;;;;;;8.83;66.37;97574.55;108711;1271;24710;-72
2022/04/24 06:23:40;;;;;;;;;;;;;;;8.78;66.82;97572.01;108573;1271;24035;-72
2022/04/24 06:26:07;;;;;;;;;;;;;;;8.71;67.00;97567.52;108585;1269;25172;-71
2022/04/24 06:28:34;;;;;;;;;;;;;;;8.66;67.71;97567.48;108594;1271;25344;-71
2022/04/24 06:31:01;;;;;;;;;;;;;;;8.63;68.35;97567.85;108556;1271;23430;-71
2022/04/24 06:33:28;;;;;;;;;;;;;;;8.59;68.35;97566.46;108585;1271;22665;-71
2022/04/24 06:35:55;;;;;;;;;;;;;;;8.59;68.48;97567.45;108570;1271;22599;-72
2022/04/24 06:38:22;;;;;;;;;;;;;;;8.57;69.13;97565.56;108575;1271;22564;-72
2022/04/24 06:40:49;;;;;;;;;;;;;;;8.57;70.06;97562.96;108567;1271;22741;-72
2022/04/24 06:43:16;;;;;;;;;;;;;;;8.50;70.56;97559.15;108548;1271;25124;-71
2022/04/24 06:45:43;;;;;;;;;;;;;;;8.42;71.15;97560.27;108615;1271;24283;-73
2022/04/24 06:48:12;;;;;;;;;;;;;;;8.36;71.57;97560.17;108553;1271;26692;-72
2022/04/24 06:50:39;;;;;;;;;;;;;;;8.29;72.27;97562.77;108555;1271;23178;-71
2022/04/24 06:53:06;;;;;;;;;;;;;;;8.23;72.27;97559.71;108611;1271;24157;-71
2022/04/24 06:55:35;;;;;;;;;;;;;;;8.21;72.54;97559.73;108615;1271;23915;-72
2022/04/24 06:58:03;;;;;;;;;;;;;;;8.17;73.27;97553.89;108564;1271;22536;-71
2022/04/24 07:00:30;;;;;;;;;;;;;;;8.11;73.24;97555.87;108568;1271;22685;-71
2022/04/24 07:02:57;;;;;;;;;;;;;;;8.05;74.55;97551.65;108544;1271;22561;-71
2022/04/24 07:05:26;;;;;;;;;;;;;;;8.01;73.84;97552.12;108574;1271;22775;-71
2022/04/24 07:07:53;;;;;;;;;;;;;;;7.98;73.54;97551.79;108590;1271;24278;-71
2022/04/24 07:10:20;;;;;;;;;;;;;;;7.95;74.20;97551.38;108577;1271;22534;-71
2022/04/24 07:12:48;;;;;;;;;;;;;;;7.94;74.53;97550.55;108566;1271;22589;-71
2022/04/24 07:15:16;;;;;;;;;;;;;;;7.90;74.93;97549.92;108572;1271;22522;-73
2022/04/24 07:17:43;;;;;;;;;;;;;;;7.93;75.20;97548.89;108586;1271;22505;-72
2022/04/24 07:20:11;;;;;;;;;;;;;;;7.91;75.19;97548.99;108560;1271;22647;-73
2022/04/24 07:22:51;;;;;;;;;;;;;;;7.93;75.21;97546.29;108583;1270;22536;-73
2022/04/24 07:25:19;;;;;;;;;;;;;;;7.94;75.62;97540.15;108561;1271;22647;-74
2022/04/24 07:27:46;;;;;;;;;;;;;;;7.96;75.41;97539.83;108568;1271;22496;-72
2022/04/24 07:30:14;;;;;;;;;;;;;;;7.99;75.45;97537.16;108586;1271;22730;-73
2022/04/24 07:32:40;;;;;;;;;;;;;;;8.01;75.53;97537.17;108577;1270;23008;-75
2022/04/24 07:35:08;;;;;;;;;;;;;;;8.02;75.54;97532.31;108592;1271;22613;-77
2022/04/24 07:37:35;;;;;;;;;;;;;;;8.07;75.81;97528.10;108574;1271;22582;-77
2022/04/24 07:40:03;;;;;;;;;;;;;;;8.11;75.49;97526.10;108588;1271;26081;-73
2022/04/24 07:42:43;;;;;;;;;;;;;;;8.20;75.54;97518.67;108608;1271;22524;-73
2022/04/24 07:45:10;;;;;;;;;;;;;;;8.33;75.54;97517.73;108579;1271;22528;-74
2022/04/24 07:47:37;;;;;;;;;;;;;;;8.39;75.73;97523.38;108591;1271;25532;-72
2022/04/24 07:50:04;;;;;;;;;;;;;;;8.44;75.73;97525.90;108607;1271;22669;-72
2022/04/24 07:52:31;;;;;;;;;;;;;;;8.44;75.81;97522.14;108842;1270;25327;-75
2022/04/24 07:54:58;;;;;;;;;;;;;;;8.44;75.35;97524.51;108596;1271;22516;-73
2022/04/24 07:57:25;;;;;;;;;;;;;;;8.47;74.89;97524.66;108598;1271;25275;-72
2022/04/24 07:59:52;;;;;;;;;;;;;;;8.49;75.02;97522.80;108595;1271;22539;-72
2022/04/24 08:02:19;;;;;;;;;;;;;;;8.52;74.94;97521.16;108580;1271;22543;-72
2022/04/24 08:04:45;;;;;;;;;;;;;;;8.54;74.95;97519.24;108599;1271;22675;-75
2022/04/24 08:07:12;;;;;;;;;;;;;;;8.62;74.53;97520.77;108583;1271;23094;-70
2022/04/24 08:09:39;;;;;;;;;;;;;;;8.71;74.33;97519.40;108604;1271;25223;-74
2022/04/24 08:12:06;;;;;;;;;;;;;;;8.79;74.56;97518.29;108635;1271;22537;-75
2022/04/24 08:14:33;;;;;;;;;;;;;;;8.89;74.51;97516.44;108626;1270;23219;-76
2022/04/24 08:17:00;;;;;;;;;;;;;;;8.89;74.45;97515.10;108520;1271;22498;-72
2022/04/24 08:19:27;;;;;;;;;;;;;;;8.92;74.18;97510.33;108500;1271;22528;-74
2022/04/24 08:21:54;;;;;;;;;;;;;;;8.96;73.95;97509.64;108540;1271;22613;-75
2022/04/24 08:24:20;;;;;;;;;;;;;;;9.02;73.78;97507.81;108538;1271;22609;-73
2022/04/24 08:26:47;;;;;;;;;;;;;;;9.11;73.27;97512.03;108532;1271;22594;-72
2022/04/24 08:29:14;;;;;;;;;;;;;;;9.20;73.12;97514.29;108575;1271;22699;-74
2022/04/24 08:31:41;;;;;;;;;;;;;;;9.25;73.17;97512.31;108544;1271;22521;-72
2022/04/24 08:34:08;;;;;;;;;;;;;;;9.28;73.10;97505.81;108592;1271;22525;-73
2022/04/24 08:36:35;;;;;;;;;;;;;;;9.30;72.87;97510.30;108587;1271;25334;-76
2022/04/24 08:39:02;;;;;;;;;;;;;;;9.32;73.10;97506.39;108593;1271;22675;-72
2022/04/24 08:41:30;;;;;;;;;;;;;;;9.31;73.08;97511.82;108567;1270;22671;-72
2022/04/24 08:43:57;;;;;;;;;;;;;;;9.28;73.07;97503.52;108550;1271;22656;-74
2022/04/24 08:46:23;;;;;;;;;;;;;;;9.27;72.74;97501.00;108577;1271;22529;-73
2022/04/24 08:48:50;;;;;;;;;;;;;;;9.23;72.81;97495.94;108642;1271;25270;-73
2022/04/24 08:51:19;;;;;;;;;;;;;;;9.21;72.54;97492.13;108552;1271;22729;-73
2022/04/24 08:53:47;;;;;;;;;;;;;;;9.17;72.56;97488.77;108782;1271;22548;-71
2022/04/24 08:56:14;;;;;;;;;;;;;;;9.14;72.44;97491.83;108771;1271;22538;-71
2022/04/24 08:58:42;;;;;;;;;;;;;;;9.14;72.55;97495.30;108801;1271;22528;-71
2022/04/24 09:01:09;;;;;;;;;;;;;;;9.16;72.43;97497.58;108790;1271;24296;-71
2022/04/24 09:03:36;;;;;;;;;;;;;;;9.18;72.24;97490.05;108798;1271;22522;-72
2022/04/24 09:06:03;;;;;;;;;;;;;;;9.19;72.74;97485.68;108813;1271;22591;-71
2022/04/24 09:08:32;;;;;;;;;;;;;;;9.20;72.77;97479.88;108789;1271;22633;-79
2022/04/24 09:10:59;;;;;;;;;;;;;;;9.23;72.92;97480.98;108779;1271;22521;-75
2022/04/24 09:16:19;;;;;;;;;;;;;;;9.26;72.61;97486.50;108753;1271;22671;-76
2022/04/24 09:18:46;;;;;;;;;;;;;;;9.23;72.75;97483.60;108781;1271;22534;-74
2022/04/24 09:21:13;;;;;;;;;;;;;;;9.23;72.61;97485.18;108726;1271;22742;-71
2022/04/24 09:23:43;;;;;;;;;;;;;;;9.23;72.43;97479.23;108772;1271;22528;-73
2022/04/24 09:26:16;;;;;;;;;;;;;;;9.27;72.38;97477.55;108781;1271;22518;-77
2022/04/24 09:28:43;;;;;;;;;;;;;;;9.33;72.90;97476.91;108758;1271;22514;-72
2022/04/24 09:31:10;;;;;;;;;;;;;;;9.37;72.85;97470.66;108719;1271;22536;-78
2022/04/24 09:33:38;;;;;;;;;;;;;;;9.44;72.78;97471.58;108689;1271;22541;-72
2022/04/24 09:36:06;;;;;;;;;;;;;;;9.50;72.85;97468.11;108607;1271;22496;-78
2022/04/24 09:38:39;;;;;;;;;;;;;;;9.56;72.67;97465.23;108759;1271;22518;-78
2022/04/24 09:41:13;;;;;;;;;;;;;;;9.63;72.69;97459.06;108723;1271;22506;-72
2022/04/24 09:43:40;;;;;;;;;;;;;;;9.66;72.37;97455.85;108722;1269;22601;-73
2022/04/24 09:46:07;;;;;;;;;;;;;;;9.69;72.21;97452.19;108750;1270;22726;-72
2022/04/24 09:48:34;;;;;;;;;;;;;;;9.77;71.87;97452.41;108705;1271;22511;-72
2022/04/24 09:51:01;;;;;;;;;;;;;;;9.83;71.91;97447.39;108707;1271;22505;-72
2022/04/24 09:53:29;;;;;;;;;;;;;;;9.88;71.84;97443.55;108738;1271;22546;-73
2022/04/24 09:55:58;;;;;;;;;;;;;;;9.93;71.77;97444.66;108718;1270;22530;-73
2022/04/24 09:58:25;;;;;;;;;;;;;;;9.94;71.63;97441.73;108729;1271;22579;-73
2022/04/24 10:00:52;;;;;;;;;;;;;;;9.95;71.17;97439.26;108723;1270;22538;-73
2022/04/24 10:03:20;;;;;;;;;;;;;;;9.94;71.12;97438.30;108734;1271;26497;-73
2022/04/24 10:05:47;;;;;;;;;;;;;;;9.92;71.08;97436.71;108737;1271;22612;-73
2022/04/24 10:08:15;;;;;;;;;;;;;;;9.94;70.90;97435.37;108744;1271;24279;-72
2022/04/24 10:10:43;;;;;;;;;;;;;;;9.96;70.97;97433.08;108689;1271;22518;-74
2022/04/24 10:13:12;;;;;;;;;;;;;;;10.01;70.93;97431.80;108756;1271;22597;-73
2022/04/24 10:15:45;;;;;;;;;;;;;;;10.06;70.88;97431.23;108707;1271;22509;-73
2022/04/24 10:18:33;;;;;;;;;;;;;;;10.09;70.75;97427.19;108728;1271;22518;-71
2022/04/24 10:21:10;;;;;;;;;;;;;;;10.11;70.83;97426.48;108753;1271;24288;-71
2022/04/24 10:23:38;;;;;;;;;;;;;;;10.08;70.92;97424.08;108764;1271;22606;-72
2022/04/24 10:26:18;;;;;;;;;;;;;;;10.04;70.99;97427.36;108746;1270;24253;-72
2022/04/24 10:28:46;;;;;;;;;;;;;;;10.04;70.74;97423.54;108746;1271;23015;-72
2022/04/24 10:31:15;;;;;;;;;;;;;;;10.06;70.67;97417.70;108750;1271;22513;-72
2022/04/24 10:33:54;;;;;;;;;;;;;;;10.08;70.63;97415.94;108737;1271;22659;-73
2022/04/24 10:36:22;;;;;;;;;;;;;;;10.15;70.96;97413.60;108742;1271;22616;-71
2022/04/24 10:38:53;;;;;;;;;;;;;;;10.21;71.18;97409.55;108775;1271;23501;-72
2022/04/24 10:41:23;;;;;;;;;;;;;;;10.26;71.14;97404.07;108776;1271;22511;-72
2022/04/24 10:43:56;;;;;;;;;;;;;;;10.28;71.06;97401.94;108695;1270;22581;-73
2022/04/24 10:46:32;;;;;;;;;;;;;;;10.30;71.23;97400.55;108666;1271;22530;-74
2022/04/24 10:49:06;;;;;;;;;;;;;;;10.38;71.16;97398.81;108670;1271;22519;-72
2022/04/24 10:51:34;;;;;;;;;;;;;;;10.41;71.13;97395.67;108695;1271;22659;-75
2022/04/24 10:54:13;;;;;;;;;;;;;;;10.53;70.94;97392.23;108680;1271;24218;-74
2022/04/24 10:56:42;;;;;;;;;;;;;;;10.64;70.92;97385.52;108672;1271;22519;-72
2022/04/24 10:59:10;;;;;;;;;;;;;;;10.81;70.73;97386.15;108662;1271;22517;-72
2022/04/24 11:01:38;;;;;;;;;;;;;;;10.91;70.83;97387.92;108678;1271;22613;-73
2022/04/24 11:04:06;;;;;;;;;;;;;;;11.05;70.35;97383.16;108720;1271;22518;-72
2022/04/24 11:06:33;;;;;;;;;;;;;;;11.30;69.72;97374.06;108751;1271;22538;-71
2022/04/24 11:09:07;;;;;;;;;;;;;;;11.55;69.40;97366.61;108752;1271;24249;-71
2022/04/24 11:11:44;;;;;;;;;;;;;;;11.63;69.29;97367.36;108778;1271;22519;-72
2022/04/24 11:14:11;;;;;;;;;;;;;;;11.90;68.84;97364.71;108750;1271;25311;-71
2022/04/24 11:16:38;;;;;;;;;;;;;;;12.09;68.12;97364.50;108787;1271;22798;-75
2022/04/24 11:19:05;;;;;;;;;;;;;;;12.23;67.60;97358.52;108759;1271;22514;-72
2022/04/24 11:21:39;;;;;;;;;;;;;;;12.27;67.42;97360.94;108763;1271;22591;-76
2022/04/24 11:24:06;;;;;;;;;;;;;;;12.23;66.99;97360.10;108766;1271;22540;-72
2022/04/24 11:26:33;;;;;;;;;;;;;;;12.33;67.09;97357.76;108797;1271;24965;-74
2022/04/24 11:29:08;;;;;;;;;;;;;;;12.45;66.36;97356.08;108785;1270;22516;-69
2022/04/24 11:31:35;;;;;;;;;;;;;;;12.58;66.00;97354.39;108717;1271;22551;-70
2022/04/24 11:34:02;;;;;;;;;;;;;;;12.54;66.29;97355.66;108719;1270;22531;-70
2022/04/24 11:36:33;;;;;;;;;;;;;;;12.54;66.38;97358.94;108758;1271;22549;-71
2022/04/24 11:39:01;;;;;;;;;;;;;;;12.58;66.56;97354.72;108686;1271;22581;-70
2022/04/24 11:41:29;;;;;;;;;;;;;;;12.64;66.49;97357.28;108662;1271;26985;-70
2022/04/24 11:52:35;;;;;;;;;;;;;;;12.73;65.92;97344.42;108732;1271;22511;-71
2022/04/24 11:55:05;;;;;;;;;;;;;;;12.70;65.87;97344.85;108768;1271;22681;-70
2022/04/24 11:57:33;;;;;;;;;;;;;;;12.74;65.74;97338.70;108731;1271;22597;-73
2022/04/24 12:00:03;;;;;;;;;;;;;;;12.84;65.96;97342.86;108753;1271;22587;-77
2022/04/24 12:02:30;;;;;;;;;;;;;;;12.98;66.09;97341.26;108753;1271;24590;-71
2022/04/24 12:04:57;;;;;;;;;;;;;;;13.23;65.65;97333.34;108658;1271;24624;-72
2022/04/24 12:07:34;;;;;;;;;;;;;;;13.50;65.45;97332.59;108538;1271;22532;-72
2022/04/24 12:10:02;;;;;;;;;;;;;;;13.96;63.70;97326.13;108526;1271;22528;-73
2022/04/24 12:12:29;;;;;;;;;;;;;;;14.27;62.94;97326.04;108512;1271;22607;-74
2022/04/24 12:14:56;;;;;;;;;;;;;;;14.43;62.22;97319.20;108550;1271;22646;-76
2022/04/24 12:17:24;;;;;;;;;;;;;;;14.57;61.25;97314.74;108539;1271;22522;-72
2022/04/24 12:19:54;;;;;;;;;;;;;;;14.57;60.78;97308.27;108547;1271;22701;-73
2022/04/24 12:22:28;;;;;;;;;;;;;;;14.56;60.57;97302.71;108541;1271;24287;-73
2022/04/24 12:25:06;;;;;;;;;;;;;;;14.60;60.55;97294.88;108547;1271;22705;-72
2022/04/24 12:27:34;;;;;;;;;;;;;;;14.67;60.37;97292.69;108534;1271;22540;-74
2022/04/24 12:30:03;;;;;;;;;;;;;;;14.70;60.26;97295.41;108620;1271;24237;-72
2022/04/24 12:32:30;;;;;;;;;;;;;;;14.63;60.68;97293.29;108570;1271;22822;-74
2022/04/24 12:34:57;;;;;;;;;;;;;;;14.57;60.43;97289.34;108524;1271;22508;-76
2022/04/24 12:37:28;;;;;;;;;;;;;;;14.40;60.86;97286.73;108547;1270;22520;-71
2022/04/24 12:39:55;;;;;;;;;;;;;;;14.25;61.00;97278.93;108562;1271;22619;-73
2022/04/24 12:42:22;;;;;;;;;;;;;;;14.11;61.36;97270.55;108524;1269;22556;-72
2022/04/24 12:44:50;;;;;;;;;;;;;;;13.93;61.59;97265.00;108501;1271;23072;-72
2022/04/24 12:47:18;;;;;;;;;;;;;;;13.83;61.92;97264.96;108611;1270;22608;-74
2022/04/24 12:49:45;;;;;;;;;;;;;;;13.76;62.27;97268.13;108760;1271;22520;-73
2022/04/24 12:52:12;;;;;;;;;;;;;;;13.78;62.29;97265.48;108697;1271;22749;-76
2022/04/24 12:54:39;;;;;;;;;;;;;;;13.80;62.64;97263.02;108752;1270;22684;-75
2022/04/24 12:57:07;;;;;;;;;;;;;;;13.92;62.60;97259.55;108784;1271;22594;-72
2022/04/24 12:59:34;;;;;;;;;;;;;;;13.91;62.64;97260.20;108743;1271;22518;-75
2022/04/24 13:02:03;;;;;;;;;;;;;;;13.84;62.73;97257.98;108759;1271;24293;-72